Time;durP1;ratioP1;P1;durP2;ratioP2;P2;SDS_P1;SDS_P2;PMS_P1;PMS_P2;Temp;Humidity;BMP_temperature;BMP_pressure;BME280_temperature;BME280_humidity;BME280_pressure;Samples;Min_cycle;Max_cycle;Signal;HPM_P1;HPM_P2
2022/06/01 00:01:05;;;;;;;5.82;2.20;;;;;;;23.34;46.01;98729.91;4993538;28;20031;-75
2022/06/01 00:03:32;;;;;;;7.28;2.33;;;;;;;23.36;45.46;98731.38;4993640;28;20037;-75
2022/06/01 00:05:58;;;;;;;3.25;1.88;;;;;;;23.30;45.69;98716.19;4992425;28;20489;-75
2022/06/01 00:08:23;;;;;;;3.92;2.08;;;;;;;23.29;44.81;98715.38;4993208;28;20061;-75
2022/06/01 00:10:49;;;;;;;4.10;1.92;;;;;;;23.30;44.90;98724.97;4992245;28;20030;-74
2022/06/01 00:13:15;;;;;;;3.13;1.60;;;;;;;23.24;44.42;98723.13;4993690;28;20524;-74
2022/06/01 00:15:40;;;;;;;6.43;2.25;;;;;;;23.21;44.69;98723.50;4993418;28;20113;-75
2022/06/01 00:18:06;;;;;;;3.25;1.83;;;;;;;23.17;44.43;98718.81;4993317;28;20066;-74
2022/06/01 00:20:32;;;;;;;3.42;1.85;;;;;;;23.17;44.93;98727.59;5007239;28;20030;-74
2022/06/01 00:22:57;;;;;;;8.18;1.80;;;;;;;23.19;44.73;98722.91;5011468;28;20034;-74
2022/06/01 00:25:24;;;;;;;3.83;1.90;;;;;;;23.20;44.57;98715.72;5013137;28;20034;-74
2022/06/01 00:27:49;;;;;;;4.00;1.88;;;;;;;23.21;44.33;98731.50;5011717;28;20049;-75
2022/06/01 00:30:15;;;;;;;3.33;1.42;;;;;;;23.16;44.78;98733.94;5011579;28;20034;-75
2022/06/01 00:32:41;;;;;;;6.00;1.83;;;;;;;23.15;44.13;98726.16;4994899;28;20053;-74
2022/06/01 00:35:07;;;;;;;2.85;1.58;;;;;;;23.05;44.27;98719.31;5012611;28;20026;-75
2022/06/01 00:37:33;;;;;;;4.13;1.63;;;;;;;23.11;44.02;98726.56;5012260;28;20041;-74
2022/06/01 00:39:58;;;;;;;4.60;1.73;;;;;;;23.02;43.84;98710.91;5012686;28;20389;-74
2022/06/01 00:42:27;;;;;;;3.90;1.60;;;;;;;22.95;44.17;98717.03;5012473;28;20041;-75
2022/06/01 00:44:52;;;;;;;4.55;1.50;;;;;;;22.92;44.71;98711.28;5011457;28;20049;-75
2022/06/01 00:47:19;;;;;;;3.70;1.50;;;;;;;22.94;44.49;98714.56;5012304;28;20501;-74
2022/06/01 00:49:52;;;;;;;4.43;1.85;;;;;;;22.92;44.66;98722.75;4978168;28;20042;-75
2022/06/01 00:52:35;;;;;;;3.88;1.80;;;;;;;22.86;45.02;98718.22;4995434;28;20065;-75
2022/06/01 00:55:10;;;;;;;4.38;1.83;;;;;;;22.81;45.02;98717.16;4997701;28;20448;-74
2022/06/01 00:57:36;;;;;;;3.20;1.40;;;;;;;22.80;44.74;98713.66;5011360;28;20178;-75
2022/06/01 01:00:07;;;;;;;4.07;1.90;;;;;;;22.79;44.76;98714.72;5016091;28;20393;-75
2022/06/01 01:02:33;;;;;;;2.58;1.50;;;;;;;22.81;44.86;98707.34;5015449;28;20034;-74
2022/06/01 01:05:00;;;;;;;4.40;1.58;;;;;;;22.82;45.08;98710.81;5015766;28;20044;-75
2022/06/01 01:07:26;;;;;;;2.75;1.50;;;;;;;22.74;45.02;98709.97;4982936;28;20042;-75
2022/06/01 01:09:51;;;;;;;2.80;1.65;;;;;;;22.68;45.23;98709.94;5016330;28;20087;-75
2022/06/01 01:12:18;;;;;;;5.13;1.50;;;;;;;22.68;44.73;98713.41;5016227;28;20033;-75
2022/06/01 01:14:43;;;;;;;3.30;1.60;;;;;;;22.68;45.06;98712.59;4998951;28;20146;-75
2022/06/01 01:17:09;;;;;;;4.05;1.40;;;;;;;22.67;45.36;98713.59;5015342;28;20034;-74
2022/06/01 01:19:53;;;;;;;3.33;1.50;;;;;;;22.68;44.90;98702.78;4998928;28;20026;-74
2022/06/01 01:22:39;;;;;;;4.07;1.60;;;;;;;22.70;44.81;98707.91;4999004;28;20065;-75
2022/06/01 01:25:20;;;;;;;2.00;1.38;;;;;;;22.67;44.98;98695.00;5015331;28;20061;-75
2022/06/01 01:27:46;;;;;;;3.00;1.52;;;;;;;22.69;45.06;98695.59;5014517;28;20528;-75
2022/06/01 01:30:27;;;;;;;3.75;1.60;;;;;;;22.69;44.76;98706.25;5014922;28;20077;-75
2022/06/01 01:32:53;;;;;;;2.85;1.60;;;;;;;22.67;45.04;98703.78;5016171;28;20030;-75
2022/06/01 01:35:19;;;;;;;2.70;1.38;;;;;;;22.64;44.96;98703.34;4998281;28;20030;-74
2022/06/01 01:37:45;;;;;;;3.25;1.60;;;;;;;22.57;45.00;98703.31;5014668;28;20192;-75
2022/06/01 01:40:11;;;;;;;2.53;1.40;;;;;;;22.53;45.16;98702.91;5014369;28;20537;-74
2022/06/01 01:42:36;;;;;;;3.22;1.52;;;;;;;22.56;45.23;98694.50;5016103;28;20034;-75
2022/06/01 01:45:17;;;;;;;2.63;1.58;;;;;;;22.57;45.02;98693.50;5015798;28;20033;-75
2022/06/01 01:47:42;;;;;;;3.25;1.80;;;;;;;22.50;45.48;98690.00;5014814;28;20053;-75
2022/06/01 01:50:09;;;;;;;4.43;1.75;;;;;;;22.51;45.18;98694.28;4998259;28;20469;-75
2022/06/01 01:52:34;;;;;;;3.80;1.60;;;;;;;22.47;45.72;98681.56;5014188;28;20380;-75
2022/06/01 01:55:08;;;;;;;2.80;1.55;;;;;;;22.50;45.88;98692.66;5014426;28;20030;-75
2022/06/01 01:57:45;;;;;;;4.50;1.80;;;;;;;22.46;45.59;98685.25;5014243;28;20084;-74
2022/06/01 02:00:43;;;;;;;4.82;1.50;;;;;;;22.43;45.92;98690.97;5014336;28;20496;-74
2022/06/01 02:03:12;;;;;;;2.25;1.30;;;;;;;22.40;45.92;98686.84;5014515;28;20021;-75
2022/06/01 02:06:05;;;;;;;3.92;2.10;;;;;;;22.32;45.86;98677.19;5014021;28;20026;-74
2022/06/01 02:08:34;;;;;;;3.03;1.50;;;;;;;22.27;45.85;98676.09;5001237;28;20038;-74
2022/06/01 02:14:19;;;;;;;4.80;1.60;;;;;;;22.20;45.96;98689.31;5014491;28;20045;-76
2022/06/01 02:17:01;;;;;;;2.67;1.45;;;;;;;22.25;45.98;98692.25;5015190;28;20030;-74
2022/06/01 02:19:32;;;;;;;3.40;1.60;;;;;;;22.23;45.77;98684.47;5013970;28;20052;-74
2022/06/01 02:21:59;;;;;;;3.08;1.55;;;;;;;22.21;46.02;98694.44;4998051;28;20033;-74
2022/06/01 02:24:24;;;;;;;6.72;1.75;;;;;;;22.25;45.85;98684.28;5013808;28;20037;-77
2022/06/01 02:26:50;;;;;;;4.20;1.80;;;;;;;22.22;45.92;98693.44;5013399;28;20054;-74
2022/06/01 02:29:19;;;;;;;4.25;1.70;;;;;;;22.19;46.36;98690.34;4997618;28;20069;-74
2022/06/01 02:31:45;;;;;;;3.58;1.63;;;;;;;22.23;45.97;98687.13;4997554;28;20021;-74
2022/06/01 02:34:10;;;;;;;3.58;1.63;;;;;;;22.23;45.94;98695.09;4997025;28;20038;-74
2022/06/01 02:36:38;;;;;;;4.47;1.70;;;;;;;22.21;46.02;98702.41;5014626;28;20033;-74
2022/06/01 02:39:04;;;;;;;3.45;1.73;;;;;;;22.17;45.55;98701.19;4997534;28;20037;-74
2022/06/01 02:44:16;;;;;;;5.15;1.80;;;;;;;22.17;45.54;98700.34;5014608;28;20052;-74
2022/06/01 02:46:41;;;;;;;;;;;;;;;22.15;45.95;98700.53;4997662;28;20412;-74
2022/06/01 02:49:06;;;;;;;4.03;1.67;;;;;;;22.08;46.15;98699.69;5014472;28;19984;-74
2022/06/01 02:51:32;;;;;;;8.15;2.33;;;;;;;22.13;45.89;98707.06;5013671;28;20037;-74
2022/06/01 02:53:57;;;;;;;2.38;1.42;;;;;;;22.10;46.24;98699.47;5014306;28;20507;-74
2022/06/01 02:56:24;;;;;;;2.25;1.70;;;;;;;22.08;45.86;98702.34;5014399;28;20033;-74
2022/06/01 02:58:50;;;;;;;3.90;1.70;;;;;;;22.07;46.33;98697.22;5014374;28;20503;-75
2022/06/01 03:01:16;;;;;;;2.75;1.85;;;;;;;22.15;46.23;98708.50;5012840;28;20063;-74
2022/06/01 03:03:41;;;;;;;6.22;1.55;;;;;;;22.18;46.18;98702.00;5014040;28;20386;-74
2022/06/01 03:06:08;;;;;;;5.95;1.70;;;;;;;22.26;45.99;98701.03;5013197;28;20030;-74
2022/06/01 03:08:33;;;;;;;2.50;1.58;;;;;;;22.50;45.60;98710.44;5013079;28;20469;-74
2022/06/01 03:10:59;;;;;;;3.00;1.63;;;;;;;22.67;45.24;98705.63;5014058;28;20026;-74
2022/06/01 03:13:25;;;;;;;4.30;1.60;;;;;;;22.91;44.27;98713.13;5014033;28;20132;-74
2022/06/01 03:15:50;;;;;;;3.00;1.77;;;;;;;22.78;44.90;98707.72;5014092;28;20041;-76
2022/06/01 03:18:16;;;;;;;3.75;1.70;;;;;;;22.80;44.79;98711.00;5013940;28;20507;-74
2022/06/01 03:20:42;;;;;;;3.35;1.63;;;;;;;23.03;44.03;98704.59;5012660;28;20037;-74
2022/06/01 03:23:07;;;;;;;4.57;1.65;;;;;;;22.99;44.50;98713.97;4996239;28;20038;-74
2022/06/01 03:25:33;;;;;;;5.32;2.55;;;;;;;22.89;44.92;98711.69;5013783;28;20456;-74
2022/06/01 03:27:59;;;;;;;7.13;3.10;;;;;;;22.82;44.84;98705.50;5013711;28;20046;-74
2022/06/01 03:30:24;;;;;;;5.03;3.28;;;;;;;22.76;45.03;98718.56;5013666;28;20029;-76
2022/06/01 03:32:50;;;;;;;5.30;2.70;;;;;;;22.72;45.01;98714.69;4996359;28;20034;-75
2022/06/01 03:35:18;;;;;;;4.20;1.98;;;;;;;22.77;45.64;98724.69;5012109;28;20050;-75
2022/06/01 03:37:43;;;;;;;3.42;2.00;;;;;;;22.82;45.06;98716.13;4996092;28;20041;-76
2022/06/01 03:40:10;;;;;;;4.63;2.13;;;;;;;22.92;45.41;98725.41;5013246;28;20424;-76
2022/06/01 03:42:38;;;;;;;3.15;2.13;;;;;;;23.01;45.38;98718.09;5012245;28;20428;-76
2022/06/01 03:47:49;;;;;;;8.73;1.92;;;;;;;24.20;42.92;98718.59;5012152;28;20048;-76
2022/06/01 03:50:16;;;;;;;4.90;1.80;;;;;;;25.14;40.86;98723.75;4995847;28;20038;-76
2022/06/01 03:52:42;;;;;;;3.67;2.30;;;;;;;25.85;39.19;98724.63;5013071;28;20568;-76
2022/06/01 03:55:08;;;;;;;7.00;3.83;;;;;;;26.56;38.03;98728.78;4995384;28;20121;-74
2022/06/01 03:57:35;;;;;;;4.53;2.40;;;;;;;27.17;36.52;98737.03;5011662;28;20026;-77
2022/06/01 04:00:01;;;;;;;4.23;2.10;;;;;;;27.73;35.36;98727.81;4995660;28;20523;-75
2022/06/01 04:02:26;;;;;;;3.75;2.30;;;;;;;28.42;34.81;98732.75;4995760;28;20026;-75
2022/06/01 04:04:52;;;;;;;5.07;2.00;;;;;;;28.99;33.64;98732.13;5013121;28;20034;-75
2022/06/01 04:07:18;;;;;;;4.28;1.98;;;;;;;29.56;32.36;98725.97;5013183;28;20469;-75
2022/06/01 04:09:43;;;;;;;7.57;2.20;;;;;;;30.11;31.77;98731.78;4995459;28;20038;-75
2022/06/01 04:12:09;;;;;;;5.65;2.28;;;;;;;30.69;31.13;98739.66;5011079;28;20484;-75
2022/06/01 04:14:34;;;;;;;4.93;2.22;;;;;;;31.33;29.14;98733.75;5011612;28;20030;-75
2022/06/01 04:17:00;;;;;;;7.50;2.25;;;;;;;31.60;28.51;98735.66;4994946;28;20022;-76
2022/06/01 04:19:26;;;;;;;6.00;2.40;;;;;;;32.17;27.50;98739.69;4992928;28;20478;-75
2022/06/01 04:21:52;;;;;;;15.43;4.35;;;;;;;32.48;27.09;98743.41;4991663;28;20026;-74
2022/06/01 04:24:19;;;;;;;7.85;2.33;;;;;;;32.83;26.44;98742.03;4971877;28;20030;-68
2022/06/01 04:26:44;;;;;;;6.43;2.03;;;;;;;33.87;25.74;98743.97;4956972;28;20047;-65
2022/06/01 04:29:10;;;;;;;7.15;2.53;;;;;;;34.66;24.48;98739.00;4971928;28;20105;-65
2022/06/01 04:31:35;;;;;;;5.80;2.03;;;;;;;35.41;23.52;98740.09;4972110;28;20030;-64
2022/06/01 04:34:01;;;;;;;8.38;2.75;;;;;;;36.07;22.56;98733.41;4955542;28;20479;-65
2022/06/01 04:36:26;;;;;;;9.00;2.80;;;;;;;36.72;22.11;98743.09;4972221;28;20471;-63
2022/06/01 04:38:52;;;;;;;11.73;3.13;;;;;;;37.26;21.53;98739.22;4971700;28;20034;-63
2022/06/01 04:41:17;;;;;;;17.23;5.53;;;;;;;37.86;20.97;98737.84;4973299;28;20034;-63
2022/06/01 04:43:43;;;;;;;18.05;4.57;;;;;;;38.39;20.55;98739.38;4967970;28;20088;-66
2022/06/01 04:46:08;;;;;;;19.45;5.28;;;;;;;38.93;19.69;98742.44;4992002;28;20027;-67
2022/06/01 04:48:34;;;;;;;22.08;5.10;;;;;;;39.39;19.16;98733.28;4992411;28;20481;-71
2022/06/01 04:51:00;;;;;;;21.98;4.40;;;;;;;39.92;19.33;98745.44;4974461;28;20137;-66
2022/06/01 04:53:25;;;;;;;23.85;5.53;;;;;;;40.38;18.54;98742.69;4974545;28;20030;-67
2022/06/01 04:55:51;;;;;;;13.73;4.40;;;;;;;40.81;18.12;98734.63;4991820;28;20030;-67
2022/06/01 04:58:16;;;;;;;17.77;4.13;;;;;;;41.26;17.40;98735.56;4992450;28;20516;-65
2022/06/01 05:00:42;;;;;;;17.25;3.60;;;;;;;41.74;16.96;98734.66;4975847;28;20038;-66
2022/06/01 05:03:08;;;;;;;13.65;4.22;;;;;;;42.27;16.45;98754.53;4992703;28;20416;-66
2022/06/01 05:05:39;;;;;;;16.20;3.67;;;;;;;42.74;16.42;98756.47;4991653;28;20026;-67
2022/06/01 05:08:08;;;;;;;10.70;3.20;;;;;;;43.17;16.00;98759.00;4992710;28;20113;-68
2022/06/01 05:10:34;;;;;;;10.20;2.95;;;;;;;43.60;15.57;98756.25;4992647;28;20030;-63
2022/06/01 05:13:00;;;;;;;10.93;2.97;;;;;;;43.94;15.28;98759.88;4991541;28;20401;-64
2022/06/01 05:15:25;;;;;;;8.33;2.67;;;;;;;44.28;14.97;98758.69;4991520;28;20262;-65
2022/06/01 05:17:51;;;;;;;8.17;2.80;;;;;;;44.57;14.74;98760.44;4992287;28;20034;-64
2022/06/01 05:20:16;;;;;;;14.10;3.03;;;;;;;44.93;14.39;98766.28;4991728;28;20037;-63
2022/06/01 05:22:42;;;;;;;9.83;2.60;;;;;;;45.15;14.12;98765.03;4992057;28;20026;-64
2022/06/01 05:25:08;;;;;;;13.73;3.37;;;;;;;45.42;13.58;98771.78;4993010;28;20038;-64
2022/06/01 05:27:33;;;;;;;10.18;2.75;;;;;;;45.59;13.37;98776.19;4992139;28;20047;-64
2022/06/01 05:29:59;;;;;;;12.03;3.00;;;;;;;45.81;13.29;98771.31;4992561;28;20093;-64
2022/06/01 05:32:24;;;;;;;10.20;2.97;;;;;;;45.99;13.14;98763.50;4992271;28;20035;-64
2022/06/01 05:34:50;;;;;;;11.00;2.60;;;;;;;46.11;12.97;98766.19;4992554;28;20113;-64
2022/06/01 05:37:15;;;;;;;9.77;3.07;;;;;;;46.26;12.98;98764.66;4992229;28;20027;-64
2022/06/01 05:39:41;;;;;;;14.73;2.80;;;;;;;46.43;12.59;98769.00;4992371;28;20062;-64
2022/06/01 05:42:06;;;;;;;7.47;2.50;;;;;;;46.44;12.89;98767.84;4992290;28;20109;-64
2022/06/01 05:44:32;;;;;;;6.47;2.53;;;;;;;46.57;12.82;98760.31;4993358;28;20031;-64
2022/06/01 05:46:59;;;;;;;9.77;2.40;;;;;;;46.70;12.19;98761.81;4996181;28;20046;-64
2022/06/01 05:49:25;;;;;;;7.05;2.00;;;;;;;46.84;11.95;98758.56;4996065;28;20173;-64
2022/06/01 05:51:50;;;;;;;6.63;2.40;;;;;;;46.94;12.35;98757.25;4995894;28;20417;-64
2022/06/01 05:54:15;;;;;;;5.10;2.13;;;;;;;46.96;12.11;98752.16;4996252;28;20486;-64
2022/06/01 05:56:41;;;;;;;11.47;2.00;;;;;;;47.05;11.90;98750.00;4994973;28;20037;-64
2022/06/01 05:59:06;;;;;;;6.03;2.03;;;;;;;47.14;12.02;98751.75;4995816;28;20165;-64
2022/06/01 06:01:32;;;;;;;4.47;1.80;;;;;;;47.13;12.02;98745.44;4995764;28;20027;-64
2022/06/01 06:03:57;;;;;;;10.10;2.00;;;;;;;47.24;11.87;98748.41;4994672;28;20117;-64
2022/06/01 06:06:23;;;;;;;4.27;1.40;;;;;;;47.09;11.81;98750.06;4995792;28;20027;-64
2022/06/01 06:09:00;;;;;;;5.23;2.17;;;;;;;46.67;12.22;98750.66;4994348;28;20113;-64
2022/06/01 06:11:27;;;;;;;8.25;2.97;;;;;;;46.17;12.82;98758.50;4994595;28;20051;-64
2022/06/01 06:13:53;;;;;;;9.65;2.90;;;;;;;45.67;12.73;98763.41;4995581;28;20030;-64
2022/06/01 06:16:19;;;;;;;9.93;2.80;;;;;;;45.94;12.97;98761.00;4995430;28;20105;-64
2022/06/01 06:18:45;;;;;;;10.70;2.90;;;;;;;46.06;13.15;98760.94;4995298;28;20076;-64
2022/06/01 06:21:10;;;;;;;15.97;3.13;;;;;;;46.23;12.94;98762.59;4995202;28;20026;-64
2022/06/01 06:23:36;;;;;;;6.10;2.60;;;;;;;46.33;13.02;98767.56;4995518;28;20038;-64
2022/06/01 06:26:01;;;;;;;6.97;2.70;;;;;;;46.36;12.82;98757.78;4995525;28;20041;-64
2022/06/01 06:28:27;;;;;;;9.97;2.40;;;;;;;46.47;13.00;98761.63;4995391;28;20525;-63
2022/06/01 06:30:53;;;;;;;12.90;2.60;;;;;;;46.45;12.96;98760.34;4995173;28;20041;-63
2022/06/01 06:33:18;;;;;;;9.97;2.73;;;;;;;46.51;12.69;98765.28;4995777;28;20042;-65
2022/06/01 06:35:44;;;;;;;8.27;2.53;;;;;;;46.58;12.97;98757.19;4994929;28;20485;-64
2022/06/01 06:38:10;;;;;;;7.85;2.40;;;;;;;46.56;12.75;98762.25;4995154;28;20056;-64
2022/06/01 06:40:36;;;;;;;7.97;2.30;;;;;;;46.50;13.18;98760.13;4994000;28;20525;-64
2022/06/01 06:43:02;;;;;;;6.47;2.17;;;;;;;46.49;12.78;98764.03;4994247;28;20034;-64
2022/06/01 06:45:27;;;;;;;10.50;2.27;;;;;;;46.39;13.02;98765.38;4994909;28;20045;-64
2022/06/01 06:47:53;;;;;;;8.87;1.83;;;;;;;46.34;12.79;98768.41;4995087;28;20022;-65
2022/06/01 06:50:19;;;;;;;16.43;1.67;;;;;;;46.23;13.02;98762.59;4994857;28;20029;-64
2022/06/01 06:52:44;;;;;;;9.60;2.00;;;;;;;46.16;12.81;98765.16;4995006;28;20030;-64
2022/06/01 06:55:10;;;;;;;10.53;2.17;;;;;;;46.12;12.80;98764.25;4994726;28;20405;-64
2022/06/01 06:57:35;;;;;;;7.50;2.47;;;;;;;46.06;13.30;98760.94;4993957;28;20030;-64
2022/06/01 07:00:01;;;;;;;12.33;3.20;;;;;;;45.97;12.97;98765.81;4994684;28;20112;-63
2022/06/01 07:02:27;;;;;;;6.80;2.30;;;;;;;45.83;13.34;98769.81;4992983;28;20050;-63
2022/06/01 07:04:52;;;;;;;10.23;2.40;;;;;;;45.72;13.13;98765.91;4994679;28;20030;-63
2022/06/01 07:07:18;;;;;;;7.03;2.50;;;;;;;45.65;13.34;98762.97;4994948;28;20108;-63
2022/06/01 07:09:43;;;;;;;9.83;2.70;;;;;;;45.58;13.92;98763.56;4994611;28;20030;-64
2022/06/01 07:12:10;;;;;;;15.80;2.70;;;;;;;45.46;14.16;98760.84;4994560;28;20042;-64
2022/06/01 07:14:35;;;;;;;;;;;;;;;45.24;14.03;98762.94;4995027;28;20037;-64
2022/06/01 07:17:01;;;;;;;8.30;2.73;;;;;;;45.21;14.22;98769.16;4994449;28;20284;-64
2022/06/01 07:19:27;;;;;;;11.07;2.53;;;;;;;45.09;14.13;98758.97;4994377;28;20120;-64
2022/06/01 07:21:52;;;;;;;6.67;2.23;;;;;;;44.89;13.82;98763.44;4994414;28;20035;-64
2022/06/01 07:24:18;;;;;;;10.83;2.33;;;;;;;44.90;14.29;98765.06;4994186;28;20034;-63
2022/06/01 07:26:44;;;;;;;9.43;2.40;;;;;;;44.82;14.25;98756.91;4994210;28;20042;-64
2022/06/01 07:29:09;;;;;;;6.55;2.53;;;;;;;44.76;14.30;98761.88;4994337;28;20050;-65
2022/06/01 07:31:35;;;;;;;8.37;2.70;;;;;;;44.71;14.51;98762.06;4994134;28;20393;-64
2022/06/01 07:34:00;;;;;;;13.20;3.13;;;;;;;44.36;14.18;98757.81;4994155;28;20113;-64
2022/06/01 07:36:27;;;;;;;11.90;2.97;;;;;;;44.32;14.65;98762.38;4993910;28;20026;-65
2022/06/01 07:44:30;;;;;;;10.95;2.97;;;;;;;44.02;14.93;98757.00;4993208;28;20077;-64
2022/06/01 07:46:56;;;;;;;6.23;2.60;;;;;;;43.94;14.91;98760.66;4993921;28;20034;-65
2022/06/01 07:49:21;;;;;;;7.80;2.40;;;;;;;43.72;15.04;98759.06;4992954;28;20034;-64
2022/06/01 07:51:49;;;;;;;8.87;2.47;;;;;;;43.33;15.74;98750.16;4993660;28;20030;-64
2022/06/01 07:54:15;;;;;;;7.38;2.30;;;;;;;43.17;15.61;98758.19;4997130;28;20029;-64
2022/06/01 07:56:41;;;;;;;7.40;2.13;;;;;;;43.08;16.01;98747.28;5011169;28;20038;-65
2022/06/01 07:59:06;;;;;;;8.43;2.40;;;;;;;43.03;15.74;98755.69;5012525;28;20042;-65
2022/06/01 08:01:33;;;;;;;8.23;2.20;;;;;;;42.84;16.21;98758.84;5013228;28;20026;-65
2022/06/01 08:03:59;;;;;;;6.20;2.00;;;;;;;42.74;16.27;98753.75;5013270;28;20038;-65
2022/06/01 08:06:25;;;;;;;7.68;2.17;;;;;;;42.50;16.46;98757.84;5012179;28;20037;-65
2022/06/01 08:08:51;;;;;;;8.68;2.20;;;;;;;42.28;16.70;98758.91;5013016;28;20034;-64
2022/06/01 08:11:16;;;;;;;9.83;2.10;;;;;;;41.71;17.05;98749.78;5013130;28;20030;-65
2022/06/01 08:13:42;;;;;;;6.63;1.90;;;;;;;41.34;17.72;98740.25;5013015;28;20026;-65
2022/06/01 08:16:07;;;;;;;10.85;2.47;;;;;;;41.21;17.59;98751.03;5012865;28;20042;-65
2022/06/01 08:18:33;;;;;;;12.30;2.42;;;;;;;41.19;17.63;98752.47;5012901;28;20374;-64
2022/06/01 08:20:58;;;;;;;7.05;2.30;;;;;;;41.26;18.02;98757.47;5011642;28;20036;-64
2022/06/01 08:23:26;;;;;;;10.05;2.30;;;;;;;41.24;17.60;98755.03;5012656;28;20030;-64
2022/06/01 08:25:52;;;;;;;5.32;2.05;;;;;;;41.19;17.98;98752.47;5012878;28;20033;-64
2022/06/01 08:28:18;;;;;;;6.82;1.92;;;;;;;41.16;18.13;98753.91;5012815;28;20058;-64
2022/06/01 08:30:43;;;;;;;6.38;2.20;;;;;;;41.02;18.27;98755.97;5012528;28;20055;-65
2022/06/01 08:33:09;;;;;;;5.72;1.83;;;;;;;40.60;18.77;98744.56;5012816;28;20036;-64
2022/06/01 08:35:36;;;;;;;5.93;2.45;;;;;;;40.27;19.06;98747.63;5013018;28;20041;-64
2022/06/01 08:38:02;;;;;;;3.85;2.05;;;;;;;40.22;18.95;98745.03;5012663;28;20040;-64
2022/06/01 08:40:33;;;;;;;6.50;2.13;;;;;;;40.20;19.24;98744.50;5012545;28;20120;-64
2022/06/01 08:43:05;;;;;;;6.97;1.80;;;;;;;40.23;19.39;98749.34;5011534;28;20037;-64
2022/06/01 08:45:31;;;;;;;6.47;2.20;;;;;;;40.13;19.47;98744.97;5011701;28;20034;-64
2022/06/01 08:47:57;;;;;;;5.88;2.20;;;;;;;39.92;19.73;98739.97;4995432;28;20037;-65
2022/06/01 08:50:34;;;;;;;5.75;1.98;;;;;;;39.63;19.97;98737.66;5012508;28;20041;-64
2022/06/01 08:53:00;;;;;;;4.60;2.05;;;;;;;39.67;19.68;98732.41;5012478;28;20034;-64
2022/06/01 08:55:36;;;;;;;7.82;2.13;;;;;;;39.49;20.20;98732.25;5012540;28;20057;-65
2022/06/01 08:58:05;;;;;;;5.50;2.17;;;;;;;39.54;20.31;98728.63;4996250;28;20038;-63
2022/06/01 09:00:32;;;;;;;7.13;1.98;;;;;;;39.59;20.51;98736.69;5011066;28;20470;-64
2022/06/01 09:03:09;;;;;;;7.15;2.10;;;;;;;39.36;20.67;98733.09;4994688;28;20042;-64
2022/06/01 09:05:52;;;;;;;6.22;2.20;;;;;;;39.35;20.73;98732.28;5011524;28;20100;-65
2022/06/01 09:08:29;;;;;;;5.03;2.05;;;;;;;39.22;20.38;98728.50;5012371;28;20030;-64
2022/06/01 09:11:05;;;;;;;7.63;1.88;;;;;;;39.09;20.50;98732.03;5012321;28;20033;-64
2022/06/01 09:13:53;;;;;;;4.57;2.00;;;;;;;39.10;20.48;98732.88;5011278;28;20120;-64
2022/06/01 09:16:25;;;;;;;6.82;2.10;;;;;;;39.06;20.55;98727.16;5012313;28;20045;-65
2022/06/01 09:18:53;;;;;;;5.75;1.92;;;;;;;39.05;20.82;98733.75;5012231;28;20180;-65
2022/06/01 09:24:06;;;;;;;8.90;2.10;;;;;;;38.86;20.76;98728.41;5016423;28;20504;-65
2022/06/01 09:26:31;;;;;;;5.35;2.05;;;;;;;38.87;20.42;98727.28;5014789;28;20034;-65
2022/06/01 09:28:58;;;;;;;6.40;2.10;;;;;;;38.86;20.60;98725.69;5016754;28;20062;-65
2022/06/01 09:31:31;;;;;;;4.95;2.15;;;;;;;38.82;20.61;98717.28;5015911;28;20029;-64
2022/06/01 09:34:25;;;;;;;9.02;1.83;;;;;;;38.82;20.71;98717.28;5016267;28;20103;-66
2022/06/01 09:37:12;;;;;;;5.75;1.90;;;;;;;38.80;20.71;98716.00;5014763;28;20037;-64
2022/06/01 09:39:39;;;;;;;3.92;2.03;;;;;;;38.78;21.07;98718.19;5016145;28;20037;-63
2022/06/01 09:42:11;;;;;;;5.15;1.95;;;;;;;38.50;21.22;98724.44;5014999;28;20392;-64
2022/06/01 09:44:40;;;;;;;3.90;2.08;;;;;;;38.44;21.15;98713.94;5015766;28;20089;-64
2022/06/01 09:47:06;;;;;;;7.28;1.90;;;;;;;38.39;20.83;98714.03;4998669;28;20071;-64
2022/06/01 09:49:36;;;;;;;5.70;1.90;;;;;;;38.30;20.86;98712.03;5013514;28;20563;-64
2022/06/01 09:52:08;;;;;;;7.20;2.30;;;;;;;38.06;21.45;98706.69;5014529;28;20550;-65
2022/06/01 09:54:37;;;;;;;5.63;1.90;;;;;;;38.00;21.68;98705.97;5015718;28;20069;-65
2022/06/01 09:57:16;;;;;;;6.00;2.30;;;;;;;37.63;21.69;98707.63;5014170;28;20092;-64
2022/06/01 10:08:23;;;;;;;8.60;1.85;;;;;;;37.45;21.79;98706.56;5015543;28;20456;-65
2022/06/01 10:11:00;;;;;;;5.20;2.03;;;;;;;37.51;21.77;98703.75;5014365;28;20460;-65
2022/06/01 10:14:02;;;;;;;6.25;2.15;;;;;;;37.46;21.98;98700.03;5015233;28;20452;-65
2022/06/01 10:16:28;;;;;;;4.22;2.15;;;;;;;37.51;21.80;98695.59;4922773;29;20122;-65
2022/06/01 10:18:54;;;;;;;7.25;1.80;;;;;;;37.48;21.91;98689.66;4935595;29;20487;-65
2022/06/01 10:21:21;;;;;;;4.20;1.90;;;;;;;37.50;22.30;98692.06;4919552;29;20103;-65
2022/06/01 10:23:54;;;;;;;5.63;2.25;;;;;;;37.48;21.90;98684.19;4935556;29;20036;-65
2022/06/01 10:26:29;;;;;;;7.95;2.13;;;;;;;37.29;22.00;98686.09;4935681;29;20155;-65
2022/06/01 10:28:58;;;;;;;5.28;2.40;;;;;;;36.92;22.13;98687.69;4935273;29;20081;-65
2022/06/01 10:31:42;;;;;;;5.60;2.20;;;;;;;36.74;22.30;98692.00;4918123;29;20542;-65
2022/06/01 10:34:16;;;;;;;6.82;2.20;;;;;;;36.56;22.21;98690.81;4935086;29;20058;-65
2022/06/01 10:36:44;;;;;;;7.63;2.35;;;;;;;36.49;22.43;98685.72;4935480;29;20171;-65
2022/06/01 10:39:22;;;;;;;4.15;2.00;;;;;;;36.41;22.67;98686.38;4935110;29;20039;-65
2022/06/01 10:41:53;;;;;;;4.38;2.28;;;;;;;36.30;22.84;98696.53;4919477;29;20038;-65
2022/06/01 10:44:24;;;;;;;5.03;2.30;;;;;;;36.11;23.41;98701.06;4935363;29;20039;-65
2022/06/01 10:46:59;;;;;;;5.15;2.08;;;;;;;35.97;23.55;98711.78;4934976;29;20040;-64
2022/06/01 10:49:27;;;;;;;4.38;2.03;;;;;;;35.68;23.93;98710.59;4919109;29;20043;-64
2022/06/01 10:52:17;;;;;;;6.03;1.90;;;;;;;35.47;24.49;98755.25;4934858;29;20067;-64
2022/06/01 10:55:06;;;;;;;7.55;2.03;;;;;;;34.92;27.03;98796.72;5014697;28;20025;-66
2022/06/01 10:57:32;;;;;;;13.68;2.90;;;;;;;34.30;29.47;98841.22;5013431;28;20033;-65
2022/06/01 10:59:57;;;;;;;12.85;3.05;;;;;;;33.82;30.86;98831.38;4996938;28;20401;-65
2022/06/01 11:02:47;;;;;;;14.23;3.33;;;;;;;33.30;32.54;98860.13;5013369;28;20033;-65
2022/06/01 11:05:16;;;;;;;12.60;3.45;;;;;;;32.86;33.67;98851.50;5013302;28;20030;-65
2022/06/01 11:07:49;;;;;;;12.02;2.90;;;;;;;32.43;34.61;98846.03;5013226;28;20029;-66
2022/06/01 11:10:17;;;;;;;14.88;3.20;;;;;;;32.03;35.46;98837.28;4997143;28;20038;-65
2022/06/01 11:13:13;;;;;;;12.13;2.80;;;;;;;31.58;36.18;98824.09;5014099;28;20037;-65
2022/06/01 11:16:00;;;;;;;9.00;2.95;;;;;;;31.23;36.25;98818.00;4919052;29;20174;-66
2022/06/01 11:18:48;;;;;;;16.85;2.75;;;;;;;30.87;37.16;98808.59;4918591;29;20024;-67
2022/06/01 11:21:26;;;;;;;9.48;2.40;;;;;;;30.55;37.50;98796.56;4918850;29;20035;-66
2022/06/01 11:24:06;;;;;;;9.90;2.30;;;;;;;30.29;37.87;98798.00;4934663;29;20027;-66
2022/06/01 11:26:43;;;;;;;7.40;2.50;;;;;;;30.03;37.92;98824.50;4919651;29;20051;-67
2022/06/01 11:29:16;;;;;;;6.53;2.00;;;;;;;29.84;38.48;98828.44;4934057;29;20062;-66
2022/06/01 11:31:42;;;;;;;6.47;1.65;;;;;;;29.64;38.85;98818.91;4918902;29;20071;-66
2022/06/01 11:34:18;;;;;;;6.20;1.80;;;;;;;29.46;38.94;98811.84;4918385;29;20578;-66
2022/06/01 11:37:14;;;;;;;7.25;1.88;;;;;;;29.27;39.22;98808.50;4934400;29;20031;-66
2022/06/01 11:39:52;;;;;;;8.88;2.13;;;;;;;29.17;39.64;98802.88;4919689;29;20047;-66
2022/06/01 11:42:26;;;;;;;7.90;1.88;;;;;;;29.07;39.94;98803.50;4918142;29;20027;-67
2022/06/01 11:45:03;;;;;;;8.15;1.90;;;;;;;28.96;40.05;98780.16;4918352;29;20507;-66
2022/06/01 11:47:40;;;;;;;7.00;1.70;;;;;;;28.87;40.29;98777.00;4934338;29;20044;-66
2022/06/01 11:50:43;;;;;;;7.53;1.65;;;;;;;28.79;40.51;98770.09;4887335;29;20051;-66
2022/06/01 11:53:18;;;;;;;9.80;2.08;;;;;;;28.65;41.01;98760.66;5010958;28;20505;-66
2022/06/01 11:55:45;;;;;;;6.85;1.52;;;;;;;28.60;41.39;98753.31;4997294;28;20041;-66
2022/06/01 11:58:20;;;;;;;8.35;1.83;;;;;;;28.57;41.60;98760.97;5012199;28;20022;-66
2022/06/01 12:00:47;;;;;;;5.68;1.50;;;;;;;28.54;41.68;98762.25;5013294;28;20485;-66
2022/06/01 12:03:25;;;;;;;5.75;1.65;;;;;;;28.49;41.84;98757.59;5011928;28;20018;-66
2022/06/01 12:06:24;;;;;;;4.53;1.80;;;;;;;28.45;42.15;98745.69;5011848;28;20121;-66